Time;durP1;ratioP1;P1;durP2;ratioP2;P2;SDS_P1;SDS_P2;PMS_P1;PMS_P2;Temp;Humidity;BMP_temperature;BMP_pressure;BME280_temperature;BME280_humidity;BME280_pressure;Samples;Min_cycle;Max_cycle;Signal;HPM_P1;HPM_P2
2021/01/16 00:00:29;;;;;;;3.97;2.97;;;-0.50;77.20;;;;;;4956451;28;20195;-76
2021/01/16 00:02:55;;;;;;;6.57;3.27;;;-0.50;77.40;;;;;;4973335;28;20186;-76
2021/01/16 00:05:23;;;;;;;3.97;2.93;;;-0.50;77.50;;;;;;4955110;28;20183;-76
2021/01/16 00:08:03;;;;;;;2.80;2.60;;;-0.60;77.50;;;;;;4969639;28;20659;-76
2021/01/16 00:10:31;;;;;;;4.97;3.97;;;-0.70;77.00;;;;;;4951330;29;20281;-76
2021/01/16 00:12:57;;;;;;;4.70;3.43;;;-0.80;77.00;;;;;;4948971;28;20250;-76
2021/01/16 00:15:23;;;;;;;5.37;3.60;;;-0.90;77.40;;;;;;4955522;28;20573;-76
2021/01/16 00:18:10;;;;;;;4.10;3.23;;;-1.00;77.80;;;;;;4972939;28;20190;-77
2021/01/16 00:20:38;;;;;;;5.90;3.00;;;-1.00;78.00;;;;;;4970761;28;20714;-76
2021/01/16 00:23:05;;;;;;;4.90;2.60;;;-1.00;78.10;;;;;;4952249;28;20183;-77
2021/01/16 00:25:31;;;;;;;3.10;2.70;;;-1.00;77.90;;;;;;4971696;28;20186;-76
2021/01/16 00:27:58;;;;;;;2.57;2.37;;;-1.10;77.90;;;;;;4955487;28;20244;-75
2021/01/16 00:30:26;;;;;;;3.23;2.93;;;-1.20;77.70;;;;;;4971283;28;20197;-76
2021/01/16 00:32:52;;;;;;;3.80;2.97;;;-1.20;77.50;;;;;;4955190;28;20570;-78
2021/01/16 00:35:19;;;;;;;3.23;3.03;;;-1.20;77.60;;;;;;4972599;28;20194;-78
2021/01/16 00:37:47;;;;;;;3.83;3.13;;;-1.20;77.80;;;;;;4961073;28;20190;-78
2021/01/16 00:40:25;;;;;;;3.60;2.50;;;-1.20;78.10;;;;;;4947560;28;20248;-78
2021/01/16 00:42:54;;;;;;;3.13;2.80;;;-1.30;77.90;;;;;;4954914;28;20681;-76
2021/01/16 00:45:21;;;;;;;4.43;2.57;;;-1.30;78.10;;;;;;4972722;28;20192;-78
2021/01/16 00:47:48;;;;;;;4.43;2.77;;;-1.30;78.20;;;;;;4971123;28;20264;-78
2021/01/16 00:50:19;;;;;;;2.83;2.63;;;-1.40;78.10;;;;;;4953420;28;20183;-77
2021/01/16 00:52:58;;;;;;;3.90;3.03;;;-1.40;78.00;;;;;;4970146;28;20190;-78
2021/01/16 00:55:25;;;;;;;4.07;2.53;;;-1.30;78.00;;;;;;4971468;28;20174;-78
2021/01/16 00:57:52;;;;;;;3.80;2.47;;;-1.40;77.80;;;;;;4955098;28;20182;-76
2021/01/16 01:00:20;;;;;;;2.73;2.47;;;-1.40;78.10;;;;;;4972676;28;20233;-76
2021/01/16 01:02:46;;;;;;;1.93;1.83;;;-1.40;77.70;;;;;;4970444;28;20264;-76
2021/01/16 01:05:14;;;;;;;2.20;2.00;;;-1.40;77.70;;;;;;4972348;28;20235;-78
2021/01/16 01:07:39;;;;;;;1.80;1.70;;;-1.40;77.20;;;;;;4970870;28;20193;-75
2021/01/16 01:10:09;;;;;;;3.10;2.00;;;-1.40;77.30;;;;;;4970837;28;20186;-77
2021/01/16 01:12:40;;;;;;;1.63;1.53;;;-1.40;77.40;;;;;;4954597;28;20195;-77
2021/01/16 01:15:09;;;;;;;1.93;1.83;;;-1.40;77.40;;;;;;4970954;28;20264;-78
2021/01/16 01:17:35;;;;;;;3.27;2.03;;;-1.40;77.20;;;;;;4958406;28;20606;-78
2021/01/16 01:20:05;;;;;;;2.47;2.27;;;-1.30;77.20;;;;;;4953707;28;20179;-78
2021/01/16 01:22:37;;;;;;;3.53;1.77;;;-1.30;77.10;;;;;;4953279;28;20906;-78
2021/01/16 01:25:06;;;;;;;1.60;1.60;;;-1.30;77.10;;;;;;4954597;28;20264;-77
2021/01/16 01:27:32;;;;;;;3.70;1.60;;;-1.30;77.10;;;;;;4954101;28;20200;-78
2021/01/16 01:29:59;;;;;;;1.87;1.70;;;-1.20;77.10;;;;;;4954522;28;20190;-78
2021/01/16 01:32:24;;;;;;;2.03;1.93;;;-1.20;77.00;;;;;;4971700;28;20929;-77
2021/01/16 01:34:50;;;;;;;1.57;1.47;;;-1.30;76.80;;;;;;4954527;28;20182;-76
2021/01/16 01:37:16;;;;;;;1.80;1.70;;;-1.30;76.90;;;;;;4954380;28;20276;-77
2021/01/16 01:39:42;;;;;;;1.73;1.63;;;-1.20;77.00;;;;;;4971805;28;20174;-77
2021/01/16 01:42:14;;;;;;;2.00;1.90;;;-1.10;76.70;;;;;;4970353;28;21011;-77
2021/01/16 01:44:40;;;;;;;1.90;1.80;;;-1.10;76.30;;;;;;4971664;28;20946;-77
2021/01/16 01:47:06;;;;;;;2.53;2.00;;;-1.10;76.00;;;;;;4949731;28;20218;-76
2021/01/16 01:49:31;;;;;;;1.57;1.43;;;-1.10;75.80;;;;;;4954274;28;20772;-76
2021/01/16 01:51:58;;;;;;;1.73;1.63;;;-1.10;75.80;;;;;;4954210;28;20222;-77
2021/01/16 01:54:24;;;;;;;2.77;2.57;;;-1.10;76.00;;;;;;4971629;28;20185;-76
2021/01/16 01:56:52;;;;;;;2.77;2.13;;;-1.10;76.10;;;;;;4970924;28;20201;-76
2021/01/16 01:59:19;;;;;;;1.83;1.57;;;-1.00;75.90;;;;;;4971787;28;20679;-77
2021/01/16 02:01:50;;;;;;;2.23;2.03;;;-1.00;75.70;;;;;;4970523;28;20210;-77
2021/01/16 02:04:17;;;;;;;3.03;2.80;;;-1.00;75.60;;;;;;4954544;28;20173;-76
2021/01/16 02:06:44;;;;;;;5.53;2.87;;;-1.10;75.50;;;;;;4971654;28;21026;-76
2021/01/16 02:09:09;;;;;;;3.43;2.53;;;-1.10;75.70;;;;;;4971250;28;20241;-77
2021/01/16 02:11:35;;;;;;;2.10;2.00;;;-1.10;75.90;;;;;;4971020;28;20730;-76
2021/01/16 02:14:01;;;;;;;2.20;1.97;;;-1.10;76.00;;;;;;4969741;28;20186;-78
2021/01/16 02:16:41;;;;;;;2.93;1.73;;;-1.20;76.40;;;;;;4953506;28;20196;-76
2021/01/16 02:19:07;;;;;;;2.90;2.60;;;-1.20;76.50;;;;;;4953714;28;20614;-76
2021/01/16 02:21:37;;;;;;;2.90;2.20;;;-1.20;76.60;;;;;;4952525;28;20628;-76
2021/01/16 02:24:19;;;;;;;2.40;2.10;;;-1.20;76.60;;;;;;4971331;28;20178;-75
2021/01/16 02:27:14;;;;;;;2.10;1.80;;;-1.20;76.60;;;;;;4970908;28;20174;-76
2021/01/16 02:29:39;;;;;;;1.60;1.50;;;-1.10;76.50;;;;;;4953530;28;20183;-76
2021/01/16 02:32:09;;;;;;;3.00;1.90;;;-1.20;76.00;;;;;;4967372;28;20182;-76
2021/01/16 02:34:39;;;;;;;4.10;1.80;;;-1.20;76.10;;;;;;4953282;28;20190;-76
2021/01/16 02:37:17;;;;;;;1.33;1.27;;;-1.30;76.40;;;;;;4971248;28;20582;-76
2021/01/16 02:40:13;;;;;;;2.47;2.27;;;-1.30;76.40;;;;;;4969244;28;20178;-76
2021/01/16 02:43:10;;;;;;;5.17;2.37;;;-1.20;76.50;;;;;;4954320;28;20217;-76
2021/01/16 02:45:43;;;;;;;1.97;1.80;;;-1.20;76.50;;;;;;4970024;28;20167;-77
2021/01/16 02:48:09;;;;;;;1.50;1.47;;;-1.20;76.50;;;;;;4953332;28;20198;-77
2021/01/16 02:50:43;;;;;;;2.07;1.97;;;-1.20;76.90;;;;;;4969360;28;20182;-77
2021/01/16 02:53:11;;;;;;;2.23;2.03;;;-1.20;77.10;;;;;;4953265;28;20196;-77
2021/01/16 02:55:39;;;;;;;1.93;1.87;;;-1.30;77.60;;;;;;4951414;28;20178;-77
2021/01/16 02:58:06;;;;;;;3.13;2.33;;;-1.30;77.90;;;;;;4969784;28;20667;-76
2021/01/16 03:00:32;;;;;;;2.60;2.50;;;-1.20;78.20;;;;;;4952810;28;20202;-76
2021/01/16 03:02:58;;;;;;;2.10;1.93;;;-1.30;78.40;;;;;;4969694;28;20240;-76
2021/01/16 03:05:23;;;;;;;1.63;1.57;;;-1.30;78.90;;;;;;4952523;28;20971;-77
2021/01/16 03:07:50;;;;;;;1.30;1.30;;;-1.30;79.00;;;;;;4952775;28;20187;-77
2021/01/16 03:10:16;;;;;;;2.87;2.10;;;-1.30;79.20;;;;;;4952642;28;20182;-77
2021/01/16 03:12:42;;;;;;;1.93;1.73;;;-1.40;79.50;;;;;;4969888;28;20178;-77
2021/01/16 03:15:10;;;;;;;2.17;2.00;;;-1.40;79.70;;;;;;4953175;28;20182;-77
2021/01/16 03:17:45;;;;;;;2.10;1.63;;;-1.40;79.80;;;;;;4970007;28;20171;-77
2021/01/16 03:20:30;;;;;;;3.37;2.73;;;-1.40;80.30;;;;;;4969893;28;20251;-77
2021/01/16 03:22:58;;;;;;;3.87;2.30;;;-1.40;80.60;;;;;;4968235;28;20174;-77
2021/01/16 03:25:26;;;;;;;3.67;2.07;;;-1.40;81.30;;;;;;4970121;28;20171;-78
2021/01/16 03:27:54;;;;;;;2.30;1.93;;;-1.50;81.40;;;;;;4964745;28;20229;-76
2021/01/16 03:30:20;;;;;;;2.77;2.20;;;-1.50;81.80;;;;;;4969752;28;20174;-77
2021/01/16 03:32:47;;;;;;;1.83;1.80;;;-1.40;81.60;;;;;;4970901;28;20761;-78
2021/01/16 03:35:17;;;;;;;2.77;2.57;;;-1.40;81.60;;;;;;4955602;28;20186;-76
2021/01/16 03:37:44;;;;;;;2.43;2.07;;;-1.40;82.10;;;;;;4973974;28;20981;-77
2021/01/16 03:40:11;;;;;;;2.33;2.23;;;-1.50;82.30;;;;;;4951630;29;20206;-76
2021/01/16 03:42:37;;;;;;;4.07;2.83;;;-1.40;82.30;;;;;;4948626;28;21092;-76
2021/01/16 03:45:09;;;;;;;2.13;2.03;;;-1.40;82.20;;;;;;4973369;28;20184;-76
2021/01/16 03:47:35;;;;;;;2.67;2.43;;;-1.40;82.20;;;;;;4956180;28;20205;-76
2021/01/16 03:50:01;;;;;;;3.53;3.00;;;-1.50;82.40;;;;;;4956521;28;20311;-77
2021/01/16 03:52:28;;;;;;;4.87;2.73;;;-1.50;82.60;;;;;;4955867;28;20187;-77
2021/01/16 03:54:54;;;;;;;5.87;3.20;;;-1.50;82.70;;;;;;4973619;28;20182;-77
2021/01/16 03:57:20;;;;;;;2.90;2.50;;;-1.60;82.70;;;;;;4973136;28;20204;-76
2021/01/16 03:59:46;;;;;;;4.43;2.43;;;-1.60;82.80;;;;;;4950122;29;20190;-77
2021/01/16 04:02:11;;;;;;;2.23;2.13;;;-1.60;82.90;;;;;;4947103;28;20206;-76
2021/01/16 04:04:37;;;;;;;4.00;2.50;;;-1.60;82.70;;;;;;4955370;28;20869;-76
2021/01/16 04:07:06;;;;;;;3.83;2.70;;;-1.50;82.70;;;;;;4955258;28;20575;-76
2021/01/16 04:09:32;;;;;;;4.73;3.00;;;-1.60;82.90;;;;;;4955444;28;20202;-76
2021/01/16 04:11:58;;;;;;;1.97;1.83;;;-1.50;82.80;;;;;;4973278;28;20634;-77
2021/01/16 04:14:23;;;;;;;4.87;2.87;;;-1.60;82.80;;;;;;4973314;28;20186;-77
2021/01/16 04:16:49;;;;;;;4.67;2.27;;;-1.70;83.10;;;;;;4973393;28;20193;-77
2021/01/16 04:19:15;;;;;;;4.47;2.87;;;-1.60;83.00;;;;;;4955711;28;20663;-77
2021/01/16 04:21:40;;;;;;;4.67;2.97;;;-1.70;82.70;;;;;;4973064;28;20256;-78
2021/01/16 04:24:06;;;;;;;2.13;2.03;;;-1.70;82.90;;;;;;4971684;28;20183;-77
2021/01/16 04:26:32;;;;;;;3.57;2.10;;;-1.70;82.80;;;;;;4973127;28;20639;-78
2021/01/16 04:28:57;;;;;;;2.57;2.40;;;-1.60;82.70;;;;;;4955854;28;20238;-77
2021/01/16 04:31:23;;;;;;;1.80;1.70;;;-1.70;82.50;;;;;;4955443;28;20197;-76
2021/01/16 04:33:49;;;;;;;5.80;2.30;;;-1.80;82.70;;;;;;4971273;28;20883;-77
2021/01/16 04:36:15;;;;;;;5.77;2.97;;;-1.80;82.70;;;;;;4973320;28;20185;-77
2021/01/16 04:38:40;;;;;;;4.63;2.53;;;-1.80;82.80;;;;;;4954916;28;20848;-77
2021/01/16 04:41:06;;;;;;;4.03;2.97;;;-1.80;82.70;;;;;;4973079;28;20572;-76
2021/01/16 04:43:32;;;;;;;4.53;3.30;;;-1.80;82.50;;;;;;4955920;28;20317;-77
2021/01/16 04:46:07;;;;;;;4.97;2.77;;;-1.80;82.40;;;;;;4972528;28;20182;-79
2021/01/16 04:48:35;;;;;;;3.83;2.70;;;-1.80;82.40;;;;;;4972652;28;20182;-79
2021/01/16 04:51:02;;;;;;;5.33;2.83;;;-1.80;82.30;;;;;;4972721;28;20178;-77
2021/01/16 04:53:38;;;;;;;4.17;2.93;;;-1.80;82.00;;;;;;4955050;28;20186;-77
2021/01/16 04:56:06;;;;;;;3.37;2.13;;;-1.80;81.80;;;;;;4970941;28;20793;-76
2021/01/16 04:58:37;;;;;;;3.60;2.63;;;-1.90;81.80;;;;;;4971618;28;20741;-77
2021/01/16 05:01:08;;;;;;;6.23;3.13;;;-1.90;82.00;;;;;;4970270;28;20206;-77
2021/01/16 05:03:39;;;;;;;2.90;2.23;;;-2.00;82.00;;;;;;4966303;28;20167;-78
2021/01/16 05:06:10;;;;;;;2.43;2.23;;;-2.00;82.20;;;;;;4951825;28;20183;-77
2021/01/16 05:08:40;;;;;;;3.47;2.13;;;-2.00;82.30;;;;;;4972476;28;20678;-77
2021/01/16 05:11:24;;;;;;;2.13;1.90;;;-2.10;82.30;;;;;;4966134;28;20183;-77
2021/01/16 05:13:56;;;;;;;3.30;2.50;;;-2.10;82.50;;;;;;4971979;28;20216;-77
2021/01/16 05:16:28;;;;;;;2.70;2.50;;;-2.00;82.60;;;;;;4972205;28;20174;-78
2021/01/16 05:18:56;;;;;;;3.77;2.77;;;-2.10;82.70;;;;;;4968097;28;20187;-78
2021/01/16 05:21:22;;;;;;;3.50;3.20;;;-2.10;82.80;;;;;;4962653;28;20321;-77
2021/01/16 05:23:51;;;;;;;3.23;2.67;;;-2.10;82.60;;;;;;4954394;28;20179;-78
2021/01/16 05:26:17;;;;;;;2.77;2.17;;;-2.10;82.40;;;;;;4970878;28;20178;-77
2021/01/16 05:28:43;;;;;;;4.10;2.67;;;-2.10;82.30;;;;;;4955022;28;20260;-78
2021/01/16 05:31:09;;;;;;;3.77;2.30;;;-2.20;82.20;;;;;;4970623;28;20310;-77
2021/01/16 05:33:38;;;;;;;3.30;2.50;;;-2.30;82.50;;;;;;4951767;28;20179;-77
2021/01/16 05:36:08;;;;;;;2.57;2.37;;;-2.30;82.60;;;;;;4952324;28;20206;-77
2021/01/16 05:38:40;;;;;;;2.47;2.27;;;-2.30;82.60;;;;;;4955478;28;20182;-78
2021/01/16 05:41:11;;;;;;;4.37;3.20;;;-2.30;82.60;;;;;;4979269;28;20252;-79
2021/01/16 05:43:39;;;;;;;3.90;2.67;;;-2.40;82.50;;;;;;4950467;28;20183;-78
2021/01/16 05:46:08;;;;;;;3.13;2.93;;;-2.30;82.40;;;;;;4960202;28;20183;-77
2021/01/16 05:48:34;;;;;;;3.83;3.33;;;-2.30;82.40;;;;;;4954213;28;20178;-78
2021/01/16 05:51:01;;;;;;;4.23;3.47;;;-2.30;82.40;;;;;;4971962;28;20182;-77
2021/01/16 05:53:28;;;;;;;2.93;2.60;;;-2.30;82.50;;;;;;4972010;28;20217;-78
2021/01/16 05:55:55;;;;;;;3.70;2.50;;;-2.30;82.30;;;;;;4971078;28;20558;-78
2021/01/16 05:58:23;;;;;;;2.80;2.60;;;-2.20;82.30;;;;;;4951823;28;20191;-78
2021/01/16 06:00:51;;;;;;;2.60;2.40;;;-2.20;82.10;;;;;;4951690;29;20202;-77
2021/01/16 06:03:19;;;;;;;3.77;2.27;;;-2.20;81.70;;;;;;4951932;28;20189;-77
2021/01/16 06:05:50;;;;;;;3.37;2.90;;;-2.20;81.60;;;;;;4952090;28;20178;-77
2021/01/16 06:08:17;;;;;;;5.17;2.67;;;-2.20;81.00;;;;;;4954368;28;20246;-78
2021/01/16 06:10:44;;;;;;;4.93;3.50;;;-2.30;80.50;;;;;;4975540;28;20190;-78
2021/01/16 06:13:17;;;;;;;6.83;2.53;;;-2.40;80.70;;;;;;4974581;28;20209;-78
2021/01/16 06:15:45;;;;;;;3.57;2.57;;;-2.30;80.40;;;;;;4957929;28;20186;-78
2021/01/16 06:18:37;;;;;;;3.13;2.43;;;-2.30;80.00;;;;;;4972149;28;20229;-77
2021/01/16 06:21:03;;;;;;;4.00;2.73;;;-2.30;79.80;;;;;;4929806;29;20250;-78
2021/01/16 06:23:30;;;;;;;5.77;3.53;;;-2.20;79.60;;;;;;4911226;29;20191;-78
2021/01/16 06:25:58;;;;;;;3.30;2.23;;;-2.20;79.40;;;;;;4930921;29;20255;-78
2021/01/16 06:28:26;;;;;;;5.20;2.70;;;-2.20;78.90;;;;;;4930067;29;20195;-78
2021/01/16 06:30:57;;;;;;;4.03;2.87;;;-2.30;78.60;;;;;;4913573;29;20254;-78
2021/01/16 06:33:29;;;;;;;2.57;2.37;;;-2.30;78.70;;;;;;4906518;29;20219;-78
2021/01/16 06:36:01;;;;;;;4.60;2.83;;;-2.30;77.50;;;;;;4929674;29;20266;-78
2021/01/16 06:38:30;;;;;;;3.80;2.13;;;-2.20;77.40;;;;;;4924768;29;20808;-79
2021/01/16 06:41:09;;;;;;;7.80;3.00;;;-2.20;76.60;;;;;;4914280;29;20200;-78
2021/01/16 06:43:39;;;;;;;2.70;2.50;;;-2.20;76.60;;;;;;4930437;29;20183;-77
2021/01/16 06:46:09;;;;;;;3.23;2.03;;;-2.30;76.30;;;;;;4929882;29;20184;-79
2021/01/16 06:48:38;;;;;;;1.90;1.80;;;-2.40;76.20;;;;;;4917558;29;20791;-78
2021/01/16 06:51:08;;;;;;;2.53;2.00;;;-2.40;75.80;;;;;;4928283;29;20271;-76
2021/01/16 06:53:33;;;;;;;2.77;1.50;;;-2.40;75.60;;;;;;4928536;29;20229;-73
2021/01/16 06:56:08;;;;;;;3.07;2.20;;;-2.40;75.30;;;;;;4925756;29;21112;-74
2021/01/16 06:58:39;;;;;;;2.47;1.90;;;-2.40;75.30;;;;;;4944634;28;20193;-75
2021/01/16 07:01:07;;;;;;;1.47;1.37;;;-2.30;75.40;;;;;;4953124;28;20758;-77
2021/01/16 07:03:38;;;;;;;1.20;1.10;;;-2.30;75.10;;;;;;4967797;28;20182;-77
2021/01/16 07:06:07;;;;;;;1.80;1.70;;;-2.40;75.10;;;;;;4943478;28;20206;-77
2021/01/16 07:08:34;;;;;;;2.03;1.63;;;-2.50;74.90;;;;;;4954382;28;20166;-77
2021/01/16 07:11:01;;;;;;;1.47;1.37;;;-2.40;75.30;;;;;;4969891;28;20770;-77
2021/01/16 07:13:31;;;;;;;2.80;2.10;;;-2.40;75.30;;;;;;4951783;28;20212;-77
2021/01/16 07:15:58;;;;;;;1.97;1.80;;;-2.40;75.10;;;;;;4969725;28;20189;-77
2021/01/16 07:18:25;;;;;;;2.47;1.80;;;-2.40;75.20;;;;;;4965462;28;20574;-77
2021/01/16 07:20:56;;;;;;;2.03;1.93;;;-2.40;75.40;;;;;;4970093;28;20572;-77
2021/01/16 07:23:22;;;;;;;1.80;1.70;;;-2.30;75.60;;;;;;4970201;28;20213;-77
2021/01/16 07:25:52;;;;;;;6.47;2.57;;;-2.30;75.40;;;;;;4964598;28;20197;-74
2021/01/16 07:28:23;;;;;;;2.53;2.37;;;-2.30;75.70;;;;;;4948326;28;21083;-73
2021/01/16 07:30:50;;;;;;;4.00;2.97;;;-2.20;76.10;;;;;;4956898;28;20391;-74
2021/01/16 07:33:16;;;;;;;3.77;2.97;;;-2.20;76.50;;;;;;4956854;28;20186;-74
2021/01/16 07:35:50;;;;;;;2.53;2.43;;;-2.20;77.00;;;;;;4957892;28;20195;-74
2021/01/16 07:38:18;;;;;;;3.47;3.17;;;-2.10;77.60;;;;;;4947737;29;20178;-74
2021/01/16 07:40:45;;;;;;;4.53;2.80;;;-2.10;77.90;;;;;;4949493;28;20293;-74
2021/01/16 07:43:32;;;;;;;3.53;2.60;;;-2.10;78.10;;;;;;4959704;28;20244;-73
2021/01/16 07:46:00;;;;;;;2.93;2.47;;;-2.10;78.10;;;;;;4961816;28;20179;-73
2021/01/16 07:48:32;;;;;;;2.77;2.27;;;-2.00;78.00;;;;;;4953768;28;20183;-74
2021/01/16 07:51:05;;;;;;;3.03;2.63;;;-2.10;78.00;;;;;;4956061;28;20582;-75
2021/01/16 07:53:37;;;;;;;5.17;3.03;;;-2.10;78.20;;;;;;4956478;28;20175;-75
2021/01/16 07:56:21;;;;;;;4.30;2.87;;;-2.10;78.60;;;;;;4940009;28;20187;-76
2021/01/16 07:59:01;;;;;;;3.63;2.53;;;-2.20;79.00;;;;;;4958740;28;20198;-77
2021/01/16 08:01:45;;;;;;;4.13;3.23;;;-2.10;79.10;;;;;;4963583;28;20221;-76
2021/01/16 08:04:25;;;;;;;3.63;2.23;;;-2.10;79.30;;;;;;4964230;28;20290;-76
2021/01/16 08:07:08;;;;;;;3.13;2.60;;;-2.00;79.60;;;;;;4955348;28;20171;-75
2021/01/16 08:09:52;;;;;;;7.17;3.20;;;-2.00;79.90;;;;;;4955898;28;20186;-76
2021/01/16 08:12:20;;;;;;;3.07;2.47;;;-2.00;80.10;;;;;;4959230;28;20198;-76
2021/01/16 08:14:46;;;;;;;2.73;2.53;;;-2.00;80.40;;;;;;4956452;28;20182;-77
2021/01/16 08:17:21;;;;;;;2.93;2.70;;;-2.10;80.60;;;;;;4962703;28;20666;-76
2021/01/16 08:20:07;;;;;;;4.97;3.43;;;-2.20;80.80;;;;;;4940193;28;20242;-77
2021/01/16 08:22:40;;;;;;;3.43;2.13;;;-2.20;80.90;;;;;;4964072;28;20293;-77
2021/01/16 08:25:15;;;;;;;4.77;2.73;;;-2.20;81.30;;;;;;4961290;28;20573;-74
2021/01/16 08:27:48;;;;;;;3.30;2.73;;;-2.30;81.70;;;;;;4953189;28;20213;-74
2021/01/16 08:30:16;;;;;;;2.80;2.47;;;-2.20;81.90;;;;;;4949462;29;20183;-74
2021/01/16 08:33:12;;;;;;;3.63;2.27;;;-2.20;82.20;;;;;;4932463;29;20615;-74
2021/01/16 08:35:41;;;;;;;6.53;3.53;;;-2.20;82.90;;;;;;4890577;29;20191;-73
2021/01/16 08:38:18;;;;;;;3.37;2.27;;;-2.20;83.00;;;;;;4890955;29;20181;-74
2021/01/16 08:41:03;;;;;;;3.10;1.90;;;-2.30;83.00;;;;;;4892259;29;20235;-77
2021/01/16 08:43:45;;;;;;;3.93;2.70;;;-2.30;83.30;;;;;;4893281;29;20165;-76
2021/01/16 08:46:21;;;;;;;3.00;1.97;;;-2.30;83.30;;;;;;4893299;29;20224;-76
2021/01/16 08:49:14;;;;;;;2.37;1.77;;;-2.40;81.10;;;;;;4893505;29;20573;-76
2021/01/16 08:51:44;;;;;;;4.70;2.97;;;-2.50;79.90;;;;;;4904895;29;20949;-75
2021/01/16 08:54:27;;;;;;;4.27;2.07;;;-2.50;79.50;;;;;;4908127;29;20204;-77
2021/01/16 08:57:13;;;;;;;2.10;2.00;;;-2.40;79.20;;;;;;4903594;29;20220;-75
2021/01/16 08:59:39;;;;;;;2.93;2.17;;;-2.40;78.20;;;;;;4888200;29;20240;-75
2021/01/16 09:02:11;;;;;;;2.50;2.10;;;-2.50;78.00;;;;;;4888614;29;20304;-74
2021/01/16 09:04:41;;;;;;;2.47;1.87;;;-2.50;77.80;;;;;;4888158;29;21118;-73
2021/01/16 09:07:18;;;;;;;1.77;1.67;;;-2.40;77.80;;;;;;4890024;29;20204;-74
2021/01/16 09:09:57;;;;;;;1.90;1.80;;;-2.40;77.30;;;;;;4890387;29;20193;-73
2021/01/16 09:12:33;;;;;;;1.73;1.63;;;-2.40;76.70;;;;;;4913250;28;20201;-73
2021/01/16 09:15:34;;;;;;;2.37;2.17;;;-2.30;76.80;;;;;;4940874;28;20213;-73
2021/01/16 09:18:26;;;;;;;5.13;2.30;;;-2.30;76.40;;;;;;4955833;28;20189;-71
2021/01/16 09:20:52;;;;;;;1.70;1.50;;;-2.30;76.40;;;;;;4947638;29;20654;-72
2021/01/16 09:23:29;;;;;;;3.93;2.30;;;-2.20;76.50;;;;;;4949558;29;20274;-73
2021/01/16 09:26:04;;;;;;;2.67;1.60;;;-2.20;76.60;;;;;;4963040;28;20190;-72
2021/01/16 09:28:49;;;;;;;2.43;1.80;;;-2.20;76.60;;;;;;4968296;28;20610;-72
2021/01/16 09:31:19;;;;;;;2.30;2.10;;;-2.20;76.30;;;;;;4966685;28;20178;-71
2021/01/16 09:33:46;;;;;;;1.67;1.53;;;-2.20;76.40;;;;;;4963582;28;20187;-71
2021/01/16 09:36:12;;;;;;;2.23;2.03;;;-2.20;76.40;;;;;;4949665;29;20190;-72
2021/01/16 09:38:39;;;;;;;2.40;2.10;;;-2.10;76.20;;;;;;4949441;29;20187;-72
2021/01/16 09:41:05;;;;;;;2.03;1.93;;;-2.10;76.00;;;;;;4955596;28;20211;-73
2021/01/16 09:43:41;;;;;;;2.10;1.97;;;-2.00;76.40;;;;;;4965978;28;20183;-72
2021/01/16 09:46:07;;;;;;;2.23;1.83;;;-1.90;75.90;;;;;;4962991;28;20234;-72
2021/01/16 09:48:38;;;;;;;2.40;1.80;;;-1.80;75.20;;;;;;4949361;29;20190;-73
2021/01/16 09:51:04;;;;;;;2.00;1.90;;;-1.80;74.50;;;;;;4956270;28;20182;-72
2021/01/16 09:53:30;;;;;;;2.40;2.23;;;-1.70;75.00;;;;;;4952530;28;20195;-75
2021/01/16 09:55:57;;;;;;;1.70;1.50;;;-1.50;74.70;;;;;;4953282;28;20198;-75
2021/01/16 09:58:40;;;;;;;6.23;2.13;;;-1.40;74.80;;;;;;4949251;28;20204;-74
2021/01/16 10:01:23;;;;;;;2.87;2.17;;;-1.10;74.00;;;;;;4939739;28;20202;-73
2021/01/16 10:03:50;;;;;;;2.17;1.60;;;-1.00;71.40;;;;;;4968553;28;20162;-76
2021/01/16 10:06:19;;;;;;;4.97;2.53;;;-0.90;70.70;;;;;;4940704;28;20664;-74
2021/01/16 10:08:53;;;;;;;3.87;2.23;;;-0.70;70.80;;;;;;4954981;28;20285;-75
2021/01/16 10:11:42;;;;;;;1.90;1.77;;;-0.50;70.40;;;;;;4963006;28;20193;-74
2021/01/16 10:14:16;;;;;;;1.57;1.47;;;-0.50;66.20;;;;;;4959809;28;20285;-74
2021/01/16 10:16:44;;;;;;;1.80;1.33;;;-0.50;65.80;;;;;;4965128;28;20186;-78
2021/01/16 10:19:13;;;;;;;2.57;1.50;;;-0.60;65.50;;;;;;4951079;28;20190;-74
2021/01/16 10:22:10;;;;;;;1.73;1.63;;;-0.80;64.80;;;;;;4958915;28;20210;-74
2021/01/16 10:24:43;;;;;;;1.37;1.33;;;-1.00;65.80;;;;;;4910097;29;20200;-74
2021/01/16 10:27:10;;;;;;;2.63;1.67;;;-0.60;66.40;;;;;;4926557;29;20657;-71
2021/01/16 10:29:40;;;;;;;3.53;1.87;;;0.00;65.70;;;;;;4926942;29;20639;-75
2021/01/16 10:32:24;;;;;;;1.63;1.53;;;0.80;64.40;;;;;;4911115;29;20192;-75
2021/01/16 10:34:50;;;;;;;3.47;2.10;;;1.70;63.00;;;;;;4926581;29;20200;-72
2021/01/16 10:37:17;;;;;;;4.30;2.37;;;2.50;61.90;;;;;;4926648;29;20669;-74
2021/01/16 10:39:50;;;;;;;6.03;2.83;;;3.40;60.30;;;;;;4910949;29;20576;-75
2021/01/16 10:42:18;;;;;;;2.90;2.63;;;3.80;57.40;;;;;;4925754;29;20227;-74
2021/01/16 10:44:45;;;;;;;2.37;2.17;;;4.10;57.00;;;;;;4926642;29;20177;-74
2021/01/16 10:47:35;;;;;;;1.53;1.43;;;4.00;56.40;;;;;;4926457;29;20187;-74
2021/01/16 10:50:11;;;;;;;2.90;2.03;;;4.10;55.90;;;;;;4926627;29;20172;-75
2021/01/16 10:52:37;;;;;;;2.03;1.93;;;4.60;56.20;;;;;;4908360;29;20184;-75
2021/01/16 10:55:06;;;;;;;2.93;1.83;;;4.90;53.50;;;;;;4907644;29;20594;-74
2021/01/16 10:57:49;;;;;;;2.33;2.13;;;5.20;54.20;;;;;;4906350;29;20282;-76
2021/01/16 11:00:20;;;;;;;2.50;2.30;;;5.60;53.20;;;;;;4915661;29;20183;-75
2021/01/16 11:02:47;;;;;;;2.10;2.00;;;5.80;51.80;;;;;;4948176;29;20634;-74
2021/01/16 11:05:16;;;;;;;1.83;1.63;;;5.50;50.40;;;;;;4948026;29;20178;-74
2021/01/16 11:07:48;;;;;;;1.33;1.13;;;5.40;51.30;;;;;;4948195;29;20281;-73
2021/01/16 11:10:26;;;;;;;8.77;2.00;;;5.50;51.70;;;;;;4965256;28;20241;-73
2021/01/16 11:12:52;;;;;;;1.47;1.43;;;5.60;51.00;;;;;;4948410;28;20538;-73
2021/01/16 11:15:20;;;;;;;1.97;1.87;;;5.20;51.20;;;;;;4966879;28;20198;-73
2021/01/16 11:17:50;;;;;;;1.90;1.80;;;4.40;51.60;;;;;;4966862;28;20186;-74
2021/01/16 11:20:21;;;;;;;1.63;1.63;;;4.00;52.60;;;;;;4966230;28;20174;-73
2021/01/16 11:23:08;;;;;;;6.13;1.80;;;4.10;53.50;;;;;;4966511;28;20155;-73
2021/01/16 11:25:43;;;;;;;1.60;1.50;;;4.20;52.20;;;;;;4966740;28;20174;-72
2021/01/16 11:28:11;;;;;;;2.00;1.73;;;4.20;52.20;;;;;;4965805;28;20193;-73
2021/01/16 11:30:45;;;;;;;1.77;1.67;;;3.80;52.30;;;;;;4965835;28;20181;-73
2021/01/16 11:33:24;;;;;;;1.50;1.40;;;3.10;51.90;;;;;;4965759;28;20695;-73
2021/01/16 11:36:15;;;;;;;1.47;1.10;;;2.20;53.30;;;;;;4966597;28;20169;-74
2021/01/16 11:38:43;;;;;;;1.50;1.40;;;1.30;54.20;;;;;;4966147;28;20188;-73
2021/01/16 11:41:11;;;;;;;1.57;1.20;;;0.90;56.20;;;;;;4966062;28;20206;-73
2021/01/16 11:43:37;;;;;;;2.20;1.33;;;0.90;56.70;;;;;;4966196;28;20252;-72
2021/01/16 11:46:10;;;;;;;2.67;1.57;;;0.60;57.30;;;;;;4966557;28;20177;-73
2021/01/16 11:48:37;;;;;;;1.70;1.60;;;0.50;57.80;;;;;;4966742;28;20201;-74
2021/01/16 11:51:20;;;;;;;1.53;1.43;;;0.70;58.40;;;;;;4959175;28;20311;-74
2021/01/16 11:53:51;;;;;;;2.57;1.83;;;0.70;58.50;;;;;;4945645;28;20687;-73
2021/01/16 11:56:24;;;;;;;1.30;1.20;;;0.50;58.80;;;;;;4951032;29;20218;-73
2021/01/16 11:58:51;;;;;;;1.70;1.50;;;0.10;59.70;;;;;;4950951;29;20194;-74
2021/01/16 12:01:18;;;;;;;1.93;1.50;;;-0.30;60.60;;;;;;4950866;29;20684;-74
2021/01/16 12:03:44;;;;;;;1.40;1.30;;;-0.70;60.80;;;;;;4933468;29;20179;-74
2021/01/16 12:06:15;;;;;;;2.33;1.80;;;-0.90;61.00;;;;;;4933464;29;20263;-74
2021/01/16 12:08:48;;;;;;;1.73;1.57;;;-1.00;61.60;;;;;;4955522;28;20644;-73
2021/01/16 12:11:15;;;;;;;1.53;1.43;;;-1.00;61.50;;;;;;4970001;28;20611;-74
2021/01/16 12:13:48;;;;;;;1.27;1.27;;;-1.20;61.30;;;;;;4970020;28;20185;-73
2021/01/16 12:16:14;;;;;;;1.87;1.70;;;-1.40;62.00;;;;;;4970063;28;20559;-74
2021/01/16 12:18:41;;;;;;;1.30;1.23;;;-1.40;62.20;;;;;;4970361;28;20186;-74
2021/01/16 12:21:09;;;;;;;1.40;1.30;;;-1.40;62.40;;;;;;4952467;28;20214;-73
2021/01/16 12:23:42;;;;;;;1.63;1.27;;;-1.60;62.60;;;;;;4968258;28;20200;-73
2021/01/16 12:26:15;;;;;;;1.17;1.17;;;-1.80;62.80;;;;;;4969628;28;20182;-74
2021/01/16 12:28:48;;;;;;;1.03;1.03;;;-1.90;63.50;;;;;;4969313;28;20245;-74
2021/01/16 12:31:33;;;;;;;1.10;1.00;;;-2.00;63.30;;;;;;4952113;28;20241;-73
2021/01/16 12:34:06;;;;;;;0.90;0.90;;;-2.20;63.30;;;;;;4969108;28;20162;-75
2021/01/16 12:36:32;;;;;;;2.40;1.70;;;-2.20;63.30;;;;;;4968761;28;20551;-74
2021/01/16 12:38:59;;;;;;;1.70;0.87;;;-2.10;63.50;;;;;;4969316;28;20269;-74
2021/01/16 12:41:26;;;;;;;1.27;1.17;;;-2.00;63.30;;;;;;4969573;28;20198;-75
2021/01/16 12:43:53;;;;;;;2.07;1.50;;;-2.10;63.30;;;;;;4952408;28;20265;-73
2021/01/16 12:46:20;;;;;;;1.80;0.97;;;-2.10;63.60;;;;;;4969589;28;20178;-73
2021/01/16 12:48:48;;;;;;;1.67;1.67;;;-2.20;63.80;;;;;;4969762;28;20228;-73
2021/01/16 12:51:17;;;;;;;3.23;0.77;;;-2.30;64.40;;;;;;4960097;28;20183;-73
2021/01/16 12:53:44;;;;;;;1.83;1.50;;;-2.40;65.00;;;;;;4950000;29;20175;-74
2021/01/16 12:56:21;;;;;;;4.43;2.03;;;-2.40;65.20;;;;;;4951226;29;20285;-74
2021/01/16 12:58:49;;;;;;;2.60;2.33;;;-2.30;65.60;;;;;;4951055;29;20175;-74
2021/01/16 13:01:16;;;;;;;3.63;1.43;;;-2.30;65.90;;;;;;4950212;29;20208;-74
2021/01/16 13:03:42;;;;;;;2.23;2.07;;;-2.20;66.30;;;;;;4949187;29;20179;-74
2021/01/16 13:06:09;;;;;;;2.37;1.87;;;-2.10;66.30;;;;;;4949029;28;20261;-74